createdAt,value
2018-05-17T00:01:52.378Z,44.53
2018-05-17T00:04:18.818Z,43.70
2018-05-17T00:06:46.261Z,46.97
2018-05-17T00:09:13.512Z,46.10
2018-05-17T00:11:40.719Z,43.17
2018-05-17T00:14:07.246Z,47.90
2018-05-17T00:16:33.893Z,41.33
2018-05-17T00:19:00.374Z,29.33
2018-05-17T00:21:27.603Z,44.43
2018-05-17T00:23:54.168Z,43.07
2018-05-17T00:26:20.695Z,40.20
2018-05-17T00:28:47.210Z,44.10
2018-05-17T00:31:14.574Z,44.60
2018-05-17T00:33:41.906Z,47.60
2018-05-17T00:36:08.382Z,43.23
2018-05-17T00:38:34.852Z,45.20
2018-05-17T00:41:01.315Z,48.40
2018-05-17T00:43:27.778Z,43.80
2018-05-17T00:45:54.300Z,42.50
2018-05-17T00:48:21.606Z,46.60
2018-05-17T00:50:48.021Z,45.63
2018-05-17T00:53:26.762Z,45.33
2018-05-17T00:55:53.210Z,38.67
2018-05-17T00:58:19.710Z,41.23
2018-05-17T01:00:46.203Z,46.70
2018-05-17T01:03:13.438Z,46.13
2018-05-17T01:05:40.040Z,45.90
2018-05-17T01:08:06.494Z,44.63
2018-05-17T01:10:33.788Z,47.07
2018-05-17T01:13:01.000Z,44.23
2018-05-17T01:15:27.546Z,40.60
2018-05-17T01:17:54.849Z,47.93
2018-05-17T01:20:21.327Z,56.83
2018-05-17T01:22:47.971Z,39.87
2018-05-17T01:25:14.575Z,61.07
2018-05-17T01:27:41.172Z,55.30
2018-05-17T01:30:07.639Z,61.13
2018-05-17T01:32:34.225Z,59.37
2018-05-17T01:35:00.710Z,61.07
2018-05-17T01:37:39.552Z,51.93
2018-05-17T01:40:06.050Z,56.47
2018-05-17T01:42:32.607Z,56.50
2018-05-17T01:44:59.111Z,65.83
2018-05-17T01:47:25.690Z,56.27
2018-05-17T01:49:52.176Z,58.33
2018-05-17T01:52:19.786Z,55.50
2018-05-17T01:54:46.238Z,64.50
2018-05-17T01:57:12.838Z,59.17
2018-05-17T01:59:39.283Z,59.50
2018-05-17T02:02:05.993Z,63.17
2018-05-17T02:04:32.497Z,60.37
2018-05-17T02:06:59.081Z,62.30
2018-05-17T02:09:25.585Z,60.73
2018-05-17T02:11:52.774Z,56.80
2018-05-17T02:14:19.365Z,64.90
2018-05-17T02:16:46.587Z,58.13
2018-05-17T02:19:13.086Z,67.50
2018-05-17T02:21:39.630Z,66.33
2018-05-17T02:24:06.164Z,61.47
2018-05-17T02:26:32.743Z,62.70
2018-05-17T02:29:00.027Z,68.80
2018-05-17T02:31:26.568Z,65.00
2018-05-17T02:33:53.091Z,69.20
2018-05-17T02:36:20.312Z,69.77
2018-05-17T02:38:46.769Z,69.17
2018-05-17T02:41:13.321Z,62.27
2018-05-17T02:43:39.756Z,66.60
2018-05-17T02:46:06.245Z,60.77
2018-05-17T02:48:32.740Z,59.43
2018-05-17T02:50:59.318Z,62.93
2018-05-17T02:53:25.818Z,64.63
2018-05-17T02:55:52.305Z,61.93
2018-05-17T02:58:19.517Z,65.20
2018-05-17T03:00:46.014Z,18.50
2018-05-17T03:03:12.563Z,11.03
2018-05-17T03:05:39.090Z,11.50
2018-05-17T03:08:05.566Z,15.77
2018-05-17T03:10:32.374Z,15.00
2018-05-17T03:12:58.875Z,13.63
2018-05-17T03:15:26.086Z,10.20
2018-05-17T03:17:53.346Z,8.07
2018-05-17T03:20:19.847Z,9.10
2018-05-17T03:22:46.408Z,6.40
2018-05-17T03:25:12.950Z,6.80
2018-05-17T03:27:39.495Z,4.90
2018-05-17T03:30:06.014Z,6.50
2018-05-17T03:32:32.522Z,6.83
2018-05-17T03:34:58.991Z,8.83
2018-05-17T03:37:25.493Z,8.07
2018-05-17T03:39:51.987Z,8.43
2018-05-17T03:42:19.169Z,7.30
2018-05-17T03:44:45.689Z,6.30
2018-05-17T03:47:12.309Z,7.07
2018-05-17T03:49:39.600Z,9.00
2018-05-17T03:52:06.070Z,6.57
2018-05-17T03:54:32.630Z,6.80
2018-05-17T03:56:59.918Z,7.43
2018-05-17T03:59:26.381Z,11.40
2018-05-17T04:02:05.909Z,22.57
2018-05-17T04:04:44.596Z,36.30
2018-05-17T04:07:11.105Z,26.70
2018-05-17T04:09:37.581Z,35.60
2018-05-17T04:12:04.115Z,32.10
2018-05-17T04:14:30.603Z,33.93
2018-05-17T04:16:57.946Z,35.43
2018-05-17T04:19:24.407Z,34.00
2018-05-17T04:21:51.663Z,33.27
2018-05-17T04:24:18.880Z,34.00
2018-05-17T04:26:46.012Z,37.00
2018-05-17T04:29:13.289Z,29.87
2018-05-17T04:31:39.852Z,33.13
2018-05-17T04:34:07.065Z,29.90
2018-05-17T04:36:33.648Z,31.13
2018-05-17T04:39:00.125Z,33.17
2018-05-17T04:41:26.658Z,32.80
2018-05-17T04:43:53.165Z,29.73
2018-05-17T04:46:19.793Z,29.10
2018-05-17T04:48:46.266Z,27.40
2018-05-17T04:51:12.724Z,26.63
2018-05-17T04:53:39.285Z,21.03
2018-05-17T04:56:06.519Z,23.37
2018-05-17T04:58:34.397Z,23.23
2018-05-17T05:01:01.670Z,21.80
2018-05-17T05:03:28.181Z,22.57
2018-05-17T05:05:55.431Z,19.80
2018-05-17T05:08:22.749Z,20.30
2018-05-17T05:10:49.978Z,20.00
2018-05-17T05:13:16.462Z,20.10
2018-05-17T05:15:42.951Z,18.10
2018-05-17T05:18:09.589Z,18.13
2018-05-17T05:20:36.035Z,20.30
2018-05-17T05:23:02.491Z,19.73
2018-05-17T05:25:29.014Z,17.60
2018-05-17T05:27:55.710Z,15.57
2018-05-17T05:30:22.256Z,17.10
2018-05-17T05:32:48.734Z,18.10
2018-05-17T05:35:15.330Z,17.00
2018-05-17T05:37:41.896Z,18.50
2018-05-17T05:40:08.381Z,15.70
2018-05-17T05:42:34.947Z,16.77
2018-05-17T05:45:01.591Z,16.07
2018-05-17T05:47:28.049Z,16.97
2018-05-17T05:49:54.478Z,13.60
2018-05-17T05:52:20.944Z,12.90
2018-05-17T05:54:48.154Z,13.90
2018-05-17T05:57:15.435Z,13.80
2018-05-17T05:59:42.787Z,12.83
2018-05-17T06:02:09.231Z,13.80
2018-05-17T06:04:36.461Z,11.37
2018-05-17T06:07:02.966Z,11.33
2018-05-17T06:09:29.480Z,11.20
2018-05-17T06:11:55.950Z,12.30
2018-05-17T06:14:22.410Z,12.63
2018-05-17T06:16:49.624Z,11.97
2018-05-17T06:19:16.133Z,12.13
2018-05-17T06:21:42.562Z,10.90
2018-05-17T06:24:09.273Z,11.93
2018-05-17T06:26:35.801Z,12.53
2018-05-17T06:29:03.039Z,12.73
2018-05-17T06:31:29.567Z,13.73
2018-05-17T06:33:56.027Z,13.43
2018-05-17T06:36:23.307Z,15.63
2018-05-17T06:38:49.902Z,14.90
2018-05-17T06:41:16.387Z,17.87
2018-05-17T06:43:42.953Z,20.17
2018-05-17T06:46:09.439Z,19.20
2018-05-17T06:48:36.101Z,18.40
2018-05-17T06:51:02.603Z,22.10
2018-05-17T06:53:30.013Z,26.47
2018-05-17T06:55:56.573Z,27.23
2018-05-17T06:58:23.418Z,23.80
2018-05-17T07:00:49.946Z,29.60
2018-05-17T07:03:16.523Z,25.97
2018-05-17T07:05:43.022Z,27.90
2018-05-17T07:08:09.571Z,29.80
2018-05-17T07:10:36.864Z,32.77
2018-05-17T07:13:03.458Z,34.13
2018-05-17T07:15:30.732Z,33.27
2018-05-17T07:17:57.318Z,32.20
2018-05-17T07:20:23.722Z,33.67
2018-05-17T07:22:50.307Z,32.37
2018-05-17T07:25:16.917Z,38.37
2018-05-17T07:27:43.394Z,39.80
2018-05-17T07:30:10.597Z,36.60
2018-05-17T07:32:37.049Z,42.57
2018-05-17T07:35:04.078Z,45.83
2018-05-17T07:37:30.956Z,46.00
2018-05-17T07:39:58.846Z,45.67
2018-05-17T07:42:25.372Z,52.07
2018-05-17T07:44:52.645Z,48.53
2018-05-17T07:47:19.623Z,49.73
2018-05-17T07:49:46.466Z,53.63
2018-05-17T07:52:12.941Z,51.00
2018-05-17T07:54:40.136Z,51.20
2018-05-17T07:57:06.628Z,43.43
2018-05-17T07:59:33.094Z,48.37
2018-05-17T08:01:59.643Z,46.77
2018-05-17T08:04:26.097Z,48.80
2018-05-17T08:06:52.976Z,45.13
2018-05-17T08:09:19.460Z,46.43
2018-05-17T08:11:46.029Z,46.83
2018-05-17T08:14:12.496Z,48.07
2018-05-17T08:16:39.061Z,50.43
2018-05-17T08:19:05.689Z,53.50
2018-05-17T08:21:32.169Z,47.80
2018-05-17T08:23:58.697Z,45.53
2018-05-17T08:26:25.144Z,46.07
2018-05-17T08:28:52.500Z,47.13
2018-05-17T08:31:18.901Z,44.23
2018-05-17T08:33:45.360Z,46.63
2018-05-17T08:36:11.916Z,46.90
2018-05-17T08:38:38.360Z,50.53
2018-05-17T08:41:04.870Z,49.13
2018-05-17T08:43:32.089Z,50.10
2018-05-17T08:45:58.631Z,51.40
2018-05-17T08:48:25.444Z,50.97
2018-05-17T08:50:51.975Z,54.20
2018-05-17T08:53:18.475Z,54.00
2018-05-17T08:55:45.714Z,51.27
2018-05-17T08:58:12.161Z,57.33
2018-05-17T09:00:39.340Z,55.80
2018-05-17T09:03:05.838Z,52.73
2018-05-17T09:05:33.066Z,49.07
2018-05-17T09:07:59.542Z,53.97
2018-05-17T09:10:26.031Z,53.30
2018-05-17T09:12:52.510Z,50.23
2018-05-17T09:15:19.019Z,49.60
2018-05-17T09:17:45.461Z,51.00
2018-05-17T09:20:12.784Z,57.17
2018-05-17T09:22:39.215Z,42.30
2018-05-17T09:25:05.752Z,42.77
2018-05-17T09:27:32.224Z,42.47
2018-05-17T09:30:06.400Z,42.83
2018-05-17T09:32:32.981Z,49.90
2018-05-17T09:35:00.182Z,48.07
2018-05-17T09:37:26.748Z,40.47
2018-05-17T09:39:54.118Z,37.53
2018-05-17T09:42:21.548Z,46.17
2018-05-17T09:44:48.770Z,45.83
2018-05-17T09:47:15.276Z,48.00
2018-05-17T09:49:41.745Z,44.43
2018-05-17T09:52:08.211Z,43.27
2018-05-17T09:54:35.421Z,40.00
2018-05-17T09:57:02.014Z,46.50
2018-05-17T09:59:28.489Z,54.60
2018-05-17T10:01:55.007Z,47.93
2018-05-17T10:04:21.489Z,43.20
2018-05-17T10:06:47.984Z,38.30
2018-05-17T10:09:14.463Z,40.87
2018-05-17T10:11:40.925Z,44.60
2018-05-17T10:14:07.487Z,39.73
2018-05-17T10:16:33.938Z,38.10
2018-05-17T10:19:00.449Z,38.23
2018-05-17T10:21:26.895Z,39.80
2018-05-17T10:23:53.475Z,35.23
2018-05-17T10:26:27.768Z,36.57
2018-05-17T10:28:54.308Z,36.83
2018-05-17T10:31:20.834Z,44.07
2018-05-17T10:33:47.301Z,40.17
2018-05-17T10:36:15.538Z,37.03
2018-05-17T10:38:41.962Z,36.33
2018-05-17T10:41:08.477Z,38.23
2018-05-17T10:43:34.993Z,38.20
2018-05-17T10:46:01.689Z,39.53
2018-05-17T10:48:28.169Z,35.07
2018-05-17T10:50:54.654Z,37.90
2018-05-17T10:53:21.895Z,29.53
2018-05-17T10:55:48.402Z,29.27
2018-05-17T10:58:14.903Z,28.00
2018-05-17T11:00:41.382Z,27.27
2018-05-17T11:03:07.911Z,29.03
2018-05-17T11:05:34.381Z,27.63
2018-05-17T11:08:02.156Z,27.17
2018-05-17T11:10:28.626Z,26.67
2018-05-17T11:12:55.253Z,23.40
2018-05-17T11:15:22.693Z,28.57
2018-05-17T11:17:49.206Z,32.57
2018-05-17T11:20:15.661Z,28.07
2018-05-17T11:22:43.030Z,29.93
2018-05-17T11:25:10.321Z,31.90
2018-05-17T11:27:36.792Z,38.93
2018-05-17T11:30:03.345Z,42.10
2018-05-17T11:32:30.579Z,32.30
2018-05-17T11:34:57.101Z,33.70
2018-05-17T11:37:23.699Z,35.67
2018-05-17T11:39:50.243Z,31.37
2018-05-17T11:42:16.790Z,36.80
2018-05-17T11:44:43.284Z,36.50
2018-05-17T11:47:10.641Z,36.77
2018-05-17T11:49:37.309Z,36.27
2018-05-17T11:52:04.054Z,31.53
2018-05-17T11:54:30.573Z,31.93
2018-05-17T11:56:57.073Z,31.07
2018-05-17T11:59:24.310Z,31.00
2018-05-17T12:01:51.638Z,34.10
2018-05-17T12:04:18.399Z,33.53
2018-05-17T12:06:45.041Z,38.07
2018-05-17T12:09:11.547Z,36.13
2018-05-17T12:11:38.193Z,31.70
2018-05-17T12:14:04.742Z,35.83
2018-05-17T12:16:31.381Z,31.37
2018-05-17T12:18:57.906Z,36.70
2018-05-17T12:21:24.522Z,31.27
2018-05-17T12:23:51.023Z,31.80
2018-05-17T12:26:18.434Z,37.50
2018-05-17T12:28:44.955Z,35.40
2018-05-17T12:31:11.582Z,36.57
2018-05-17T12:33:38.091Z,35.73
2018-05-17T12:36:04.642Z,33.30
2018-05-17T12:38:31.201Z,36.33
2018-05-17T12:40:57.758Z,38.27
2018-05-17T12:43:24.293Z,37.63
2018-05-17T12:45:50.906Z,36.83
2018-05-17T12:48:17.432Z,37.70
2018-05-17T12:50:43.992Z,37.13
2018-05-17T12:53:11.194Z,43.60
2018-05-17T12:55:37.781Z,41.07
2018-05-17T12:58:04.296Z,44.50
2018-05-17T13:00:31.017Z,40.67
2018-05-17T13:02:57.506Z,40.37
2018-05-17T13:05:24.833Z,42.70
2018-05-17T13:07:51.407Z,38.20
2018-05-17T13:10:17.996Z,37.23
2018-05-17T13:12:44.534Z,39.47
2018-05-17T13:15:11.015Z,41.00
2018-05-17T13:17:38.240Z,45.77
2018-05-17T13:20:04.767Z,40.47
2018-05-17T13:22:32.096Z,38.53
2018-05-17T13:24:58.587Z,33.73
2018-05-17T13:27:25.895Z,38.17
2018-05-17T13:29:52.418Z,39.63
2018-05-17T13:32:19.135Z,34.70
2018-05-17T13:34:46.389Z,32.67
2018-05-17T13:37:13.731Z,38.87
2018-05-17T13:39:40.934Z,44.63
2018-05-17T13:42:07.528Z,35.57
2018-05-17T13:44:34.889Z,32.77
2018-05-17T13:47:01.400Z,37.13
2018-05-17T13:49:28.632Z,43.90
2018-05-17T13:51:55.108Z,35.50
2018-05-17T13:54:21.625Z,30.87
2018-05-17T13:56:48.944Z,37.47
2018-05-17T13:59:15.619Z,36.17
2018-05-17T14:01:42.913Z,34.17
2018-05-17T14:04:09.433Z,30.60
2018-05-17T14:06:36.198Z,30.97
2018-05-17T14:09:02.671Z,31.83
2018-05-17T14:11:29.345Z,32.97
2018-05-17T14:13:55.862Z,35.83
2018-05-17T14:16:22.354Z,37.07
2018-05-17T14:18:48.888Z,39.43
2018-05-17T14:21:15.381Z,32.53
2018-05-17T14:23:42.007Z,33.90
2018-05-17T14:26:09.266Z,36.00
2018-05-17T14:28:36.613Z,37.40
2018-05-17T14:31:03.184Z,37.03
2018-05-17T14:33:29.788Z,35.73
2018-05-17T14:35:56.519Z,35.33
2018-05-17T14:38:23.830Z,40.83
2018-05-17T14:40:50.512Z,40.33
2018-05-17T14:43:17.721Z,32.40
2018-05-17T14:45:44.198Z,36.87
2018-05-17T14:48:11.499Z,35.13
2018-05-17T14:50:38.193Z,34.53
2018-05-17T14:53:05.415Z,35.57
2018-05-17T14:55:31.965Z,37.83
2018-05-17T14:57:59.215Z,38.33
2018-05-17T15:00:26.466Z,33.47
2018-05-17T15:02:53.749Z,33.00
2018-05-17T15:05:20.227Z,37.37
2018-05-17T15:07:46.783Z,36.50
2018-05-17T15:10:13.403Z,36.80
2018-05-17T15:12:39.973Z,33.20
2018-05-17T15:15:07.221Z,43.57
2018-05-17T15:17:34.496Z,36.47
2018-05-17T15:20:01.822Z,39.77
2018-05-17T15:22:29.228Z,38.90
2018-05-17T15:24:55.754Z,38.00
2018-05-17T15:27:22.323Z,37.20
2018-05-17T15:29:48.840Z,44.60
2018-05-17T15:32:16.098Z,40.23
2018-05-17T15:34:42.653Z,40.33
2018-05-17T15:37:09.624Z,37.77
2018-05-17T15:39:37.026Z,37.87
2018-05-17T15:42:04.352Z,33.87
2018-05-17T15:44:30.869Z,35.10
2018-05-17T15:46:58.099Z,34.97
2018-05-17T15:49:24.587Z,38.77
2018-05-17T15:51:51.571Z,41.67
2018-05-17T15:54:18.083Z,41.70
2018-05-17T15:56:44.607Z,37.40
2018-05-17T15:59:11.205Z,27.90
2018-05-17T16:01:38.391Z,45.67
2018-05-17T16:04:04.918Z,36.47
2018-05-17T16:06:31.601Z,39.10
2018-05-17T16:08:58.922Z,33.70
2018-05-17T16:11:25.503Z,42.67
2018-05-17T16:13:52.899Z,36.37
2018-05-17T16:16:19.457Z,38.53
2018-05-17T16:21:41.645Z,41.03
2018-05-17T16:24:08.274Z,40.30
2018-05-17T16:26:34.854Z,35.40
2018-05-17T16:29:01.486Z,34.93
2018-05-17T16:31:28.005Z,34.93
2018-05-17T16:33:55.272Z,36.90
2018-05-17T16:36:22.574Z,34.50
2018-05-17T16:38:49.247Z,42.50
2018-05-17T16:41:16.632Z,32.87
2018-05-17T16:43:43.159Z,39.10
2018-05-17T16:46:09.706Z,37.90
2018-05-17T16:48:36.377Z,39.03
2018-05-17T16:51:02.835Z,35.00
2018-05-17T16:53:29.532Z,36.13
2018-05-17T16:55:56.034Z,35.93
2018-05-17T16:58:23.325Z,28.33
2018-05-17T17:00:49.846Z,32.90
2018-05-17T17:03:16.333Z,29.13
2018-05-17T17:05:44.471Z,26.90
2018-05-17T17:11:06.793Z,34.73
2018-05-17T17:13:33.409Z,29.77
2018-05-17T17:16:00.714Z,28.97
2018-05-17T17:18:27.222Z,33.77
2018-05-17T17:20:53.806Z,35.03
2018-05-17T17:23:20.344Z,33.10
2018-05-17T17:25:46.973Z,33.57
2018-05-17T17:28:13.484Z,37.97
2018-05-17T17:30:40.049Z,22.27
2018-05-17T17:33:06.934Z,33.07
2018-05-17T17:35:33.410Z,31.60
2018-05-17T17:37:59.928Z,32.73
2018-05-17T17:40:32.334Z,32.23
2018-05-17T17:42:59.007Z,39.90
2018-05-17T17:45:26.488Z,30.67
2018-05-17T17:47:53.096Z,31.60
2018-05-17T17:50:36.847Z,36.43
2018-05-17T17:53:04.931Z,32.20
2018-05-17T17:55:31.478Z,34.83
2018-05-17T17:57:58.077Z,39.83
2018-05-17T18:00:26.131Z,34.30
2018-05-17T18:02:52.998Z,42.17
2018-05-17T18:05:20.393Z,43.30
2018-05-17T18:07:51.686Z,37.50
2018-05-17T18:13:14.586Z,39.30
2018-05-17T18:15:41.128Z,39.77
2018-05-17T18:18:07.610Z,39.63
2018-05-17T18:20:34.196Z,41.50
2018-05-17T18:23:00.741Z,38.40
2018-05-17T18:25:27.496Z,39.13
2018-05-17T18:27:53.995Z,39.23
2018-05-17T18:30:21.271Z,37.67
2018-05-17T18:32:47.742Z,41.00
2018-05-17T18:35:14.313Z,39.80
2018-05-17T18:37:41.613Z,36.90
2018-05-17T18:40:08.128Z,45.10
2018-05-17T18:42:34.716Z,33.10
2018-05-17T18:45:01.252Z,36.50
2018-05-17T18:47:27.718Z,28.80
2018-05-17T18:49:54.267Z,31.00
2018-05-17T18:52:21.539Z,30.37
2018-05-17T18:54:48.096Z,29.53
2018-05-17T18:57:15.352Z,35.30
2018-05-17T18:59:41.996Z,31.73
2018-05-17T19:02:08.537Z,29.77
2018-05-17T19:04:35.939Z,30.03
2018-05-17T19:07:02.466Z,28.63
2018-05-17T19:09:29.030Z,27.20
2018-05-17T19:11:55.829Z,33.03
2018-05-17T19:14:22.416Z,26.07
2018-05-17T19:16:49.857Z,27.10
2018-05-17T19:19:16.492Z,29.40
2018-05-17T19:21:43.804Z,25.83
2018-05-17T19:24:11.139Z,27.83
2018-05-17T19:26:37.783Z,29.47
2018-05-17T19:29:05.165Z,22.43
2018-05-17T19:31:31.938Z,23.10
2018-05-17T19:33:59.245Z,25.53
2018-05-17T19:36:26.546Z,24.10
2018-05-17T19:38:53.190Z,23.20
2018-05-17T19:41:19.726Z,23.30
2018-05-17T19:43:46.542Z,22.00
2018-05-17T19:46:13.505Z,25.87
2018-05-17T19:48:40.027Z,20.47
2018-05-17T19:51:06.596Z,19.93
2018-05-17T19:53:33.247Z,28.90
2018-05-17T19:55:59.822Z,21.00
2018-05-17T19:58:26.449Z,23.23
2018-05-17T20:00:53.073Z,25.47
2018-05-17T20:03:19.789Z,26.17
2018-05-17T20:05:46.347Z,29.10
2018-05-17T20:08:13.662Z,24.03
2018-05-17T20:10:40.253Z,26.00
2018-05-17T20:13:06.801Z,27.43
2018-05-17T20:15:33.388Z,25.20
2018-05-17T20:17:59.963Z,23.03
2018-05-17T20:20:26.454Z,25.77
2018-05-17T20:22:53.189Z,25.23
2018-05-17T20:25:19.706Z,23.20
2018-05-17T20:27:46.358Z,24.27
2018-05-17T20:30:13.742Z,32.83
2018-05-17T20:32:41.001Z,28.90
2018-05-17T20:35:08.312Z,26.03
2018-05-17T20:37:34.769Z,24.47
2018-05-17T20:40:01.398Z,25.83
2018-05-17T20:42:27.869Z,22.80
2018-05-17T20:44:56.801Z,28.60
2018-05-17T20:47:24.268Z,29.30
2018-05-17T20:49:53.085Z,31.97
2018-05-17T20:52:19.623Z,27.33
2018-05-17T20:54:47.717Z,33.80
2018-05-17T20:57:14.222Z,33.43
2018-05-17T20:59:40.735Z,25.00
2018-05-17T21:02:07.229Z,26.80
2018-05-17T21:04:33.718Z,37.13
2018-05-17T21:07:00.196Z,28.20
2018-05-17T21:09:26.783Z,30.43
2018-05-17T21:11:53.319Z,27.40
2018-05-17T21:14:19.950Z,26.87
2018-05-17T21:16:46.499Z,27.93
2018-05-17T21:19:12.954Z,27.60
2018-05-17T21:21:40.219Z,28.77
2018-05-17T21:24:06.682Z,24.07
2018-05-17T21:26:33.310Z,21.23
2018-05-17T21:28:59.811Z,21.97
2018-05-17T21:31:26.653Z,28.03
2018-05-17T21:33:54.011Z,25.90
2018-05-17T21:36:20.515Z,27.47
2018-05-17T21:38:46.954Z,27.03
2018-05-17T21:41:13.454Z,26.47
2018-05-17T21:43:39.979Z,27.73
2018-05-17T21:46:06.485Z,27.97
2018-05-17T21:48:33.072Z,30.80
2018-05-17T21:50:59.529Z,24.50
2018-05-17T21:53:26.098Z,32.10
2018-05-17T21:55:52.857Z,32.50
2018-05-17T21:58:20.045Z,29.17
2018-05-17T22:00:46.505Z,31.50
2018-05-17T22:03:13.778Z,28.47
2018-05-17T22:05:40.306Z,28.70
2018-05-17T22:08:07.557Z,24.60
2018-05-17T22:10:34.138Z,28.50
2018-05-17T22:13:00.673Z,34.00
2018-05-17T22:15:27.329Z,29.30
2018-05-17T22:17:53.821Z,25.13
2018-05-17T22:20:20.366Z,24.50
2018-05-17T22:22:47.266Z,29.13
2018-05-17T22:25:13.739Z,32.40
2018-05-17T22:27:40.429Z,35.30
2018-05-17T22:30:06.954Z,33.73
2018-05-17T22:32:33.450Z,30.43
2018-05-17T22:35:00.036Z,29.77
2018-05-17T22:37:26.542Z,32.77
2018-05-17T22:39:53.163Z,31.27
2018-05-17T22:42:19.765Z,29.53
2018-05-17T22:44:46.436Z,34.73
2018-05-17T22:47:12.930Z,32.67
2018-05-17T22:49:39.526Z,29.20
2018-05-17T22:52:05.977Z,32.30
2018-05-17T22:54:32.463Z,31.33
2018-05-17T22:57:11.031Z,32.40
2018-05-17T22:59:37.562Z,30.80
2018-05-17T23:02:04.135Z,35.00
2018-05-17T23:04:30.598Z,32.30
2018-05-17T23:06:57.102Z,33.73
2018-05-17T23:09:24.394Z,34.53
2018-05-17T23:11:50.944Z,29.50
2018-05-17T23:14:17.516Z,30.23
2018-05-17T23:16:44.868Z,34.87
2018-05-17T23:19:12.800Z,36.50
2018-05-17T23:21:39.283Z,32.67
2018-05-17T23:24:06.496Z,35.00
2018-05-17T23:26:32.934Z,33.57
2018-05-17T23:28:59.418Z,36.93
2018-05-17T23:31:25.858Z,33.57
2018-05-17T23:33:52.315Z,31.77
2018-05-17T23:36:18.761Z,39.10
2018-05-17T23:38:45.221Z,45.27
2018-05-17T23:41:24.716Z,44.23
2018-05-17T23:43:51.370Z,37.60
2018-05-17T23:46:18.713Z,37.53
2018-05-17T23:48:45.185Z,38.07
2018-05-17T23:51:12.352Z,44.63
2018-05-17T23:53:38.910Z,40.83
2018-05-17T23:56:05.372Z,42.67
2018-05-17T23:58:31.966Z,41.57
